Terminal Aerodrome Forecast
Issued by NWS Tulsa, OK

Home | Current Version | Previous Version | Text Only | Print | Product List | Glossary On
Versions: 1 2 3 4 5 6 7 8 9 10 11 12 13 14
000
FTUS44 KTSA 041725
TAFTUL
TAF
KTUL 041725Z 0418/0518 VRB04KT P6SM SCT025
     FM050100 17006KT P6SM SCT250
     FM051200 19008KT P6SM BKN050 PROB30 0512/0518 5SM -TSRA BR
      BKN030CB=

USA.gov is the U.S. government's official web portal to all federal, state and local government web resources and services.